createdAt,value
2023-01-29T00:00:33.585Z,26.70
2023-01-29T00:03:04.748Z,24.17
2023-01-29T00:05:33.184Z,28.52
2023-01-29T00:08:09.143Z,25.67
2023-01-29T00:10:37.679Z,21.08
2023-01-29T00:13:11.955Z,20.67
2023-01-29T00:15:40.691Z,18.73
2023-01-29T00:18:10.548Z,18.20
2023-01-29T00:20:39.980Z,16.10
2023-01-29T00:23:10.588Z,16.38
2023-01-29T00:25:39.729Z,12.57
2023-01-29T00:28:08.201Z,11.45
2023-01-29T00:30:37.562Z,13.05
2023-01-29T00:33:06.449Z,13.13
2023-01-29T00:35:36.476Z,14.40
2023-01-29T00:38:07.365Z,13.32
2023-01-29T00:40:53.042Z,10.80
2023-01-29T00:43:38.932Z,14.18
2023-01-29T00:46:07.851Z,12.57
2023-01-29T00:48:36.405Z,12.88
2023-01-29T00:51:08.943Z,14.38
2023-01-29T00:53:40.049Z,12.20
2023-01-29T00:56:08.916Z,11.95
2023-01-29T00:58:37.896Z,14.63
2023-01-29T01:01:06.883Z,12.68
2023-01-29T01:03:42.252Z,12.98
2023-01-29T01:06:12.428Z,13.20
2023-01-29T01:09:00.952Z,16.70
2023-01-29T01:11:29.520Z,14.63
2023-01-29T01:14:02.212Z,15.98
2023-01-29T01:16:30.683Z,16.42
2023-01-29T01:18:59.124Z,16.58
2023-01-29T01:21:29.029Z,17.60
2023-01-29T01:23:57.812Z,16.15
2023-01-29T01:26:26.283Z,15.77
2023-01-29T01:28:55.610Z,16.73
2023-01-29T01:31:25.007Z,14.10
2023-01-29T01:33:54.866Z,16.98
2023-01-29T01:36:23.581Z,17.17
2023-01-29T01:38:55.011Z,14.95
2023-01-29T01:41:24.415Z,14.10
2023-01-29T01:43:54.841Z,14.85
2023-01-29T01:46:23.731Z,14.73
2023-01-29T01:48:56.755Z,13.38
2023-01-29T01:51:27.720Z,13.00
2023-01-29T01:54:03.538Z,13.32
2023-01-29T01:56:40.638Z,13.40
2023-01-29T01:59:13.372Z,13.85
2023-01-29T02:01:50.153Z,14.10
2023-01-29T02:04:40.032Z,10.90
2023-01-29T02:07:28.627Z,11.18
2023-01-29T02:10:07.638Z,10.52
2023-01-29T02:12:38.563Z,8.00
2023-01-29T02:15:08.559Z,8.30
2023-01-29T02:17:38.007Z,6.25
2023-01-29T02:20:18.291Z,5.40
2023-01-29T02:23:28.388Z,8.43
2023-01-29T02:26:41.901Z,4.15
2023-01-29T02:29:27.347Z,5.00
2023-01-29T02:32:17.435Z,4.35
2023-01-29T02:35:16.436Z,3.50
2023-01-29T02:37:55.765Z,5.00
2023-01-29T02:40:31.737Z,4.60
2023-01-29T02:43:10.064Z,3.63
2023-01-29T02:45:49.594Z,3.58
2023-01-29T02:48:21.382Z,3.55
2023-01-29T02:50:58.817Z,3.20
2023-01-29T02:53:37.161Z,3.67
2023-01-29T02:56:11.521Z,5.60
2023-01-29T02:58:44.559Z,3.10
2023-01-29T03:01:19.733Z,4.32
2023-01-29T03:03:54.843Z,5.65
2023-01-29T03:06:28.531Z,2.95
2023-01-29T03:11:33.320Z,4.18
2023-01-29T03:14:13.951Z,3.08
2023-01-29T03:16:48.861Z,4.88
2023-01-29T03:19:20.623Z,3.33
2023-01-29T03:21:55.431Z,3.40
2023-01-29T03:24:48.489Z,3.65
2023-01-29T03:27:37.723Z,2.95
2023-01-29T03:30:27.544Z,3.28
2023-01-29T03:33:11.102Z,3.75
2023-01-29T03:35:48.814Z,3.50
2023-01-29T03:38:17.729Z,4.97
2023-01-29T03:40:52.439Z,6.25
2023-01-29T03:43:32.420Z,4.45
2023-01-29T03:46:08.576Z,4.50
2023-01-29T03:48:43.110Z,4.35
2023-01-29T03:51:29.126Z,3.92
2023-01-29T03:54:05.688Z,3.53
2023-01-29T03:56:47.501Z,14.23
2023-01-29T03:59:28.401Z,7.05
2023-01-29T04:02:16.125Z,3.40
2023-01-29T04:04:48.783Z,2.92
2023-01-29T04:07:24.793Z,3.75
2023-01-29T04:10:07.277Z,3.28
2023-01-29T04:12:42.386Z,2.80
2023-01-29T04:17:50.848Z,3.60
2023-01-29T04:20:28.763Z,3.67
2023-01-29T04:22:57.614Z,3.13
2023-01-29T04:25:30.646Z,3.28
2023-01-29T04:28:06.854Z,3.70
2023-01-29T04:30:45.032Z,4.88
2023-01-29T04:33:23.156Z,3.47
2023-01-29T04:36:08.906Z,5.90
2023-01-29T04:38:50.131Z,58.78
2023-01-29T04:41:23.141Z,5.45
2023-01-29T04:44:02.663Z,4.07
2023-01-29T04:46:37.370Z,5.65
2023-01-29T04:49:19.434Z,4.28
2023-01-29T04:52:03.306Z,4.25
2023-01-29T04:54:44.206Z,3.83
2023-01-29T04:57:23.267Z,3.75
2023-01-29T04:59:58.816Z,3.60
2023-01-29T05:02:29.085Z,3.28
2023-01-29T05:05:00.099Z,4.90
2023-01-29T05:07:32.290Z,3.65
2023-01-29T05:10:01.794Z,4.70
2023-01-29T05:12:35.190Z,3.63
2023-01-29T05:15:09.690Z,3.38
2023-01-29T05:17:39.481Z,3.63
2023-01-29T05:20:08.944Z,5.10
2023-01-29T05:22:42.629Z,3.78
2023-01-29T05:25:23.346Z,3.78
2023-01-29T05:28:05.482Z,3.65
2023-01-29T05:30:36.065Z,4.65
2023-01-29T05:33:05.209Z,4.97
2023-01-29T05:35:34.112Z,5.10
2023-01-29T05:38:05.099Z,4.40
2023-01-29T05:40:33.695Z,4.60
2023-01-29T05:43:02.154Z,4.80
2023-01-29T05:45:31.921Z,4.82
2023-01-29T05:48:01.303Z,10.05
2023-01-29T05:50:29.975Z,8.07
2023-01-29T05:52:59.486Z,6.95
2023-01-29T05:55:30.789Z,5.20
2023-01-29T05:57:59.337Z,6.18
2023-01-29T06:00:28.401Z,5.65
2023-01-29T06:02:56.872Z,4.68
2023-01-29T06:05:27.057Z,5.35
2023-01-29T06:07:55.462Z,6.75
2023-01-29T06:10:24.929Z,5.45
2023-01-29T06:12:54.820Z,6.65
2023-01-29T06:15:26.738Z,5.25
2023-01-29T06:17:56.080Z,5.90
2023-01-29T06:20:24.812Z,5.80
2023-01-29T06:22:53.220Z,5.20
2023-01-29T06:25:21.829Z,5.53
2023-01-29T06:27:52.080Z,5.30
2023-01-29T06:30:22.046Z,5.80
2023-01-29T06:32:50.501Z,5.68
2023-01-29T06:35:20.474Z,6.47
2023-01-29T06:37:49.507Z,5.93
2023-01-29T06:40:22.354Z,5.25
2023-01-29T06:42:50.831Z,4.30
2023-01-29T06:45:19.331Z,5.50
2023-01-29T06:47:49.528Z,6.63
2023-01-29T06:50:19.111Z,6.60
2023-01-29T06:52:47.732Z,5.47
2023-01-29T06:55:16.346Z,6.75
2023-01-29T06:57:45.776Z,4.85
2023-01-29T07:00:16.448Z,7.22
2023-01-29T07:02:46.652Z,5.85
2023-01-29T07:05:16.664Z,5.85
2023-01-29T07:07:45.112Z,4.90
2023-01-29T07:10:13.579Z,6.63
2023-01-29T07:12:42.095Z,6.22
2023-01-29T07:15:12.765Z,5.07
2023-01-29T07:17:41.640Z,5.85
2023-01-29T07:20:11.480Z,5.85
2023-01-29T07:22:41.380Z,5.38
2023-01-29T07:25:11.179Z,5.90
2023-01-29T07:27:40.702Z,5.55
2023-01-29T07:30:10.661Z,5.60
2023-01-29T07:32:39.127Z,5.40
2023-01-29T07:35:09.308Z,4.78
2023-01-29T07:37:37.831Z,4.68
2023-01-29T07:40:11.633Z,4.32
2023-01-29T07:42:42.381Z,4.85
2023-01-29T07:45:12.365Z,4.22
2023-01-29T07:47:41.463Z,8.20
2023-01-29T07:50:11.105Z,5.63
2023-01-29T07:52:40.663Z,4.28
2023-01-29T07:55:12.817Z,4.38
2023-01-29T07:57:43.215Z,4.45
2023-01-29T08:00:13.637Z,5.00
2023-01-29T08:02:42.291Z,5.88
2023-01-29T08:05:11.632Z,5.65
2023-01-29T08:07:40.281Z,4.60
2023-01-29T08:10:11.082Z,5.13
2023-01-29T08:12:39.475Z,5.47
2023-01-29T08:15:08.690Z,5.45
2023-01-29T08:17:56.191Z,4.15
2023-01-29T08:20:27.674Z,9.50
2023-01-29T08:23:01.463Z,5.20
2023-01-29T08:28:01.264Z,4.20
2023-01-29T08:30:32.275Z,5.20
2023-01-29T08:33:00.948Z,3.85
2023-01-29T08:35:29.707Z,5.55
2023-01-29T08:38:02.184Z,10.90
2023-01-29T08:40:34.881Z,8.20
2023-01-29T08:43:06.885Z,5.72
2023-01-29T08:45:38.750Z,4.60
2023-01-29T08:48:08.617Z,5.40
2023-01-29T08:50:37.860Z,6.38
2023-01-29T08:53:09.174Z,4.57
2023-01-29T08:55:39.935Z,5.70
2023-01-29T08:58:09.552Z,6.07
2023-01-29T09:00:38.084Z,4.47
2023-01-29T09:03:08.146Z,4.72
2023-01-29T09:05:37.153Z,4.60
2023-01-29T09:08:06.081Z,4.75
2023-01-29T09:10:34.789Z,4.38
2023-01-29T09:13:05.170Z,20.70
2023-01-29T09:15:33.679Z,6.43
2023-01-29T09:18:05.618Z,7.20
2023-01-29T09:20:34.506Z,6.60
2023-01-29T09:23:06.284Z,4.70
2023-01-29T09:25:35.564Z,4.13
2023-01-29T09:28:06.386Z,4.10
2023-01-29T09:30:38.355Z,3.92
2023-01-29T09:33:07.471Z,5.50
2023-01-29T09:35:36.993Z,9.02
2023-01-29T09:38:05.466Z,4.65
2023-01-29T09:40:40.313Z,3.30
2023-01-29T09:43:17.939Z,4.20
2023-01-29T09:45:54.667Z,4.93
2023-01-29T09:48:28.823Z,4.43
2023-01-29T09:51:00.052Z,4.72
2023-01-29T09:53:34.637Z,3.88
2023-01-29T09:56:06.645Z,5.80
2023-01-29T09:58:39.893Z,4.22
2023-01-29T10:01:16.074Z,4.38
2023-01-29T10:04:06.052Z,3.25
2023-01-29T10:06:49.671Z,3.30
2023-01-29T10:09:44.061Z,4.38
2023-01-29T10:12:38.444Z,3.90
2023-01-29T10:15:21.035Z,4.88
2023-01-29T10:18:01.726Z,4.18
2023-01-29T10:23:22.103Z,7.28
2023-01-29T10:25:51.667Z,5.85
2023-01-29T10:28:24.311Z,3.97
2023-01-29T10:31:00.024Z,5.60
2023-01-29T10:33:54.231Z,5.55
2023-01-29T10:36:34.520Z,4.25
2023-01-29T10:39:03.071Z,4.30
2023-01-29T10:41:49.936Z,3.92
2023-01-29T10:44:28.934Z,4.65
2023-01-29T10:47:18.914Z,5.25
2023-01-29T10:50:05.946Z,6.03
2023-01-29T10:52:57.242Z,9.00
2023-01-29T10:55:42.382Z,4.47
2023-01-29T10:58:22.217Z,4.03
2023-01-29T11:00:51.789Z,4.63
2023-01-29T11:03:28.252Z,4.13
2023-01-29T11:06:03.228Z,4.68
2023-01-29T11:08:41.926Z,4.28
2023-01-29T11:11:14.992Z,6.25
2023-01-29T11:13:48.934Z,4.50
2023-01-29T11:19:02.245Z,4.32
2023-01-29T11:21:31.518Z,4.20
2023-01-29T11:24:17.864Z,5.65
2023-01-29T11:26:49.661Z,4.05
2023-01-29T11:29:51.543Z,5.93
2023-01-29T11:32:29.707Z,4.78
2023-01-29T11:35:02.686Z,5.03
2023-01-29T11:40:36.452Z,4.10
2023-01-29T11:43:23.586Z,3.92
2023-01-29T11:45:55.649Z,5.35
2023-01-29T11:48:33.586Z,5.25
2023-01-29T11:51:05.665Z,6.38
2023-01-29T11:53:39.086Z,7.10
2023-01-29T11:56:26.586Z,5.80
2023-01-29T11:58:58.122Z,7.32
2023-01-29T12:01:34.620Z,5.05
2023-01-29T12:04:05.453Z,9.30
2023-01-29T12:06:45.540Z,11.75
2023-01-29T12:09:20.959Z,7.07
2023-01-29T12:11:53.709Z,4.43
2023-01-29T12:14:33.635Z,6.70
2023-01-29T12:17:07.643Z,5.15
2023-01-29T12:19:40.779Z,8.13
2023-01-29T12:22:21.086Z,5.88
2023-01-29T12:24:56.490Z,7.40
2023-01-29T12:27:35.921Z,7.82
2023-01-29T12:30:13.204Z,6.82
2023-01-29T12:32:58.289Z,6.30
2023-01-29T12:35:32.845Z,5.95
2023-01-29T12:38:08.389Z,6.72
2023-01-29T12:40:44.385Z,6.82
2023-01-29T12:43:18.082Z,16.40
2023-01-29T12:45:52.273Z,6.07
2023-01-29T12:48:27.588Z,7.30
2023-01-29T12:51:06.003Z,6.72
2023-01-29T12:53:40.179Z,5.43
2023-01-29T12:56:14.649Z,6.70
2023-01-29T12:58:46.056Z,5.35
2023-01-29T13:01:18.458Z,5.28
2023-01-29T13:03:54.624Z,6.03
2023-01-29T13:06:29.993Z,6.40
2023-01-29T13:09:03.199Z,6.13
2023-01-29T13:11:40.041Z,6.63
2023-01-29T13:14:15.729Z,5.72
2023-01-29T13:16:47.467Z,8.50
2023-01-29T13:19:27.558Z,10.55
2023-01-29T13:21:58.716Z,5.72
2023-01-29T13:24:38.339Z,7.45
2023-01-29T13:27:07.287Z,5.95
2023-01-29T13:29:39.003Z,5.22
2023-01-29T13:32:10.517Z,6.55
2023-01-29T13:34:46.606Z,6.95
2023-01-29T13:37:24.357Z,7.97
2023-01-29T13:39:56.322Z,7.13
2023-01-29T13:42:27.572Z,8.50
2023-01-29T13:44:58.300Z,8.10
2023-01-29T13:47:29.580Z,5.82
2023-01-29T13:50:02.725Z,7.00
2023-01-29T13:52:41.199Z,6.25
2023-01-29T13:55:31.434Z,5.95
2023-01-29T13:58:01.160Z,6.38
2023-01-29T14:00:57.031Z,6.15
2023-01-29T14:04:04.566Z,7.93
2023-01-29T14:07:00.880Z,6.28
2023-01-29T14:10:05.211Z,6.28
2023-01-29T14:12:49.214Z,5.57
2023-01-29T14:15:32.496Z,6.70
2023-01-29T14:18:20.994Z,6.40
2023-01-29T14:20:57.112Z,7.30
2023-01-29T14:23:35.871Z,8.90
2023-01-29T14:26:06.933Z,7.97
2023-01-29T14:28:36.870Z,5.32
2023-01-29T14:31:07.755Z,6.18
2023-01-29T14:33:38.568Z,8.18
2023-01-29T14:36:14.458Z,8.05
2023-01-29T14:38:51.108Z,10.18
2023-01-29T14:41:29.812Z,6.93
2023-01-29T14:44:43.435Z,6.47
2023-01-29T14:47:23.849Z,6.57
2023-01-29T14:49:57.155Z,6.95
2023-01-29T14:52:36.787Z,7.18
2023-01-29T14:55:16.721Z,5.32
2023-01-29T14:57:47.169Z,10.73
2023-01-29T15:00:29.870Z,7.25
2023-01-29T15:03:02.364Z,7.05
2023-01-29T15:05:34.201Z,6.25
2023-01-29T15:08:10.330Z,8.95
2023-01-29T15:10:44.100Z,7.47
2023-01-29T15:13:23.473Z,6.95
2023-01-29T15:16:08.377Z,11.32
2023-01-29T15:18:42.953Z,6.93
2023-01-29T15:21:17.067Z,8.80
2023-01-29T15:23:48.025Z,9.45
2023-01-29T15:26:21.124Z,9.23
2023-01-29T15:29:04.280Z,6.72
2023-01-29T15:31:34.243Z,7.50
2023-01-29T15:34:09.908Z,8.43
2023-01-29T15:36:41.226Z,7.70
2023-01-29T15:39:18.917Z,7.20
2023-01-29T15:41:49.049Z,7.63
2023-01-29T15:44:20.157Z,9.95
2023-01-29T15:46:54.255Z,8.20
2023-01-29T15:49:36.224Z,7.95
2023-01-29T15:52:09.379Z,8.30
2023-01-29T15:54:37.863Z,9.35
2023-01-29T15:57:07.783Z,13.85
2023-01-29T15:59:45.039Z,9.75
2023-01-29T16:02:36.669Z,8.23
2023-01-29T16:05:17.784Z,8.52
2023-01-29T16:07:48.244Z,9.48
2023-01-29T16:10:21.239Z,9.48
2023-01-29T16:12:52.804Z,14.45
2023-01-29T16:15:32.482Z,11.10
2023-01-29T16:18:03.412Z,11.93
2023-01-29T16:20:42.613Z,9.88
2023-01-29T16:23:33.431Z,11.00
2023-01-29T16:26:07.389Z,26.15
2023-01-29T16:31:14.156Z,12.40
2023-01-29T16:33:45.525Z,14.98
2023-01-29T16:36:22.820Z,13.45
2023-01-29T16:38:56.893Z,11.48
2023-01-29T16:41:32.653Z,10.68
2023-01-29T16:44:04.637Z,10.70
2023-01-29T16:46:37.806Z,11.32
2023-01-29T16:49:51.399Z,11.57
2023-01-29T16:52:25.696Z,12.55
2023-01-29T16:55:01.329Z,9.77
2023-01-29T16:57:34.649Z,9.98
2023-01-29T17:00:08.030Z,11.65
2023-01-29T17:02:40.171Z,10.57
2023-01-29T17:05:16.841Z,10.55
2023-01-29T17:07:50.297Z,10.60
2023-01-29T17:10:22.287Z,10.50
2023-01-29T17:12:57.266Z,11.85
2023-01-29T17:15:36.455Z,9.43
2023-01-29T17:18:14.366Z,11.18
2023-01-29T17:20:44.054Z,9.85
2023-01-29T17:23:14.286Z,9.55
2023-01-29T17:25:48.843Z,8.98
2023-01-29T17:28:20.145Z,10.45
2023-01-29T17:31:05.042Z,7.57
2023-01-29T17:33:34.932Z,11.10
2023-01-29T17:36:03.447Z,8.50
2023-01-29T17:38:33.404Z,8.55
2023-01-29T17:41:07.398Z,9.68
2023-01-29T17:46:06.153Z,7.45
2023-01-29T17:48:34.825Z,9.65
2023-01-29T17:51:05.792Z,18.40
2023-01-29T17:53:45.668Z,9.52
2023-01-29T17:56:23.015Z,8.20
2023-01-29T17:59:02.188Z,8.82
2023-01-29T18:01:30.827Z,10.27
2023-01-29T18:03:59.691Z,9.85
2023-01-29T18:06:40.661Z,8.85
2023-01-29T18:09:18.986Z,9.10
2023-01-29T18:11:51.502Z,8.98
2023-01-29T18:14:19.983Z,7.63
2023-01-29T18:16:48.858Z,8.93
2023-01-29T18:19:22.383Z,8.85
2023-01-29T18:21:52.026Z,7.85
2023-01-29T18:24:21.988Z,9.05
2023-01-29T18:26:51.299Z,7.60
2023-01-29T18:29:20.132Z,9.77
2023-01-29T18:31:50.364Z,9.43
2023-01-29T18:34:18.914Z,8.88
2023-01-29T18:36:48.049Z,9.48
2023-01-29T18:39:16.933Z,9.80
2023-01-29T18:41:47.022Z,9.32
2023-01-29T18:44:15.682Z,9.07
2023-01-29T18:46:44.315Z,9.10
2023-01-29T18:49:12.764Z,8.57
2023-01-29T18:51:41.242Z,10.45
2023-01-29T18:54:13.101Z,10.82
2023-01-29T18:57:08.765Z,9.38
2023-01-29T18:59:32.484Z,8.38
2023-01-29T19:02:01.343Z,8.20
2023-01-29T19:04:30.820Z,10.77
2023-01-29T19:07:01.666Z,8.25
2023-01-29T19:09:31.712Z,10.15
2023-01-29T19:12:00.211Z,10.43
2023-01-29T19:14:28.689Z,9.63
2023-01-29T19:16:58.633Z,9.13
2023-01-29T19:19:27.307Z,9.18
2023-01-29T19:21:57.144Z,8.60
2023-01-29T19:24:25.593Z,8.57
2023-01-29T19:26:54.265Z,9.02
2023-01-29T19:29:22.799Z,8.60
2023-01-29T19:31:51.656Z,12.25
2023-01-29T19:34:21.499Z,13.25
2023-01-29T19:36:50.311Z,10.48
2023-01-29T19:39:18.882Z,8.52
2023-01-29T19:41:47.410Z,10.63
2023-01-29T19:44:16.109Z,8.57
2023-01-29T19:46:45.488Z,8.68
2023-01-29T19:49:14.180Z,8.20
2023-01-29T19:51:46.228Z,13.98
2023-01-29T19:54:15.433Z,8.80
2023-01-29T19:56:45.435Z,9.32
2023-01-29T19:59:14.017Z,8.68
2023-01-29T20:01:42.764Z,8.32
2023-01-29T20:04:11.464Z,9.20
2023-01-29T20:06:40.045Z,8.63
2023-01-29T20:09:09.990Z,10.35
2023-01-29T20:11:39.008Z,9.32
2023-01-29T20:14:07.504Z,10.38
2023-01-29T20:16:37.177Z,10.50
2023-01-29T20:19:13.780Z,9.93
2023-01-29T20:21:45.497Z,11.77
2023-01-29T20:24:16.163Z,9.63
2023-01-29T20:26:44.675Z,10.32
2023-01-29T20:29:13.452Z,10.52
2023-01-29T20:31:43.528Z,8.35
2023-01-29T20:34:12.225Z,9.77
2023-01-29T20:36:40.955Z,9.82
2023-01-29T20:39:10.586Z,9.77
2023-01-29T20:41:41.723Z,10.73
2023-01-29T20:44:10.597Z,10.52
2023-01-29T20:46:40.676Z,12.27
2023-01-29T20:49:11.979Z,11.05
2023-01-29T20:51:40.360Z,10.45
2023-01-29T20:54:08.882Z,12.18
2023-01-29T20:56:41.242Z,9.82
2023-01-29T20:59:14.694Z,11.32
2023-01-29T21:01:44.304Z,10.95
2023-01-29T21:04:12.764Z,11.32
2023-01-29T21:06:41.410Z,10.80
2023-01-29T21:09:10.326Z,11.73
2023-01-29T21:11:38.728Z,10.48
2023-01-29T21:14:08.140Z,9.48
2023-01-29T21:16:38.983Z,9.45
2023-01-29T21:19:07.707Z,11.90
2023-01-29T21:21:38.014Z,10.70
2023-01-29T21:24:08.929Z,9.95
2023-01-29T21:26:38.495Z,10.25
2023-01-29T21:29:11.540Z,12.48
2023-01-29T21:31:43.604Z,12.48
2023-01-29T21:34:13.992Z,11.07
2023-01-29T21:36:42.745Z,10.85
2023-01-29T21:39:17.741Z,11.93
2023-01-29T21:42:04.720Z,9.35
2023-01-29T21:44:34.076Z,10.63
2023-01-29T21:47:12.582Z,10.68
2023-01-29T21:49:42.629Z,10.80
2023-01-29T21:52:12.541Z,11.43
2023-01-29T21:54:41.815Z,10.25
2023-01-29T21:57:15.054Z,11.15
2023-01-29T21:59:43.888Z,9.52
2023-01-29T22:02:17.790Z,12.55
2023-01-29T22:04:46.380Z,10.43
2023-01-29T22:07:15.350Z,12.68
2023-01-29T22:09:43.883Z,10.73
2023-01-29T22:12:12.542Z,11.30
2023-01-29T22:14:42.072Z,10.77
2023-01-29T22:17:10.997Z,10.30
2023-01-29T22:19:43.478Z,10.75
2023-01-29T22:22:14.747Z,9.68
2023-01-29T22:24:44.933Z,10.60
2023-01-29T22:27:14.251Z,10.77
2023-01-29T22:29:43.295Z,7.05
2023-01-29T22:32:13.341Z,9.32
2023-01-29T22:34:43.105Z,9.18
2023-01-29T22:37:11.685Z,9.20
2023-01-29T22:39:40.065Z,9.40
2023-01-29T22:42:08.555Z,9.73
2023-01-29T22:44:38.024Z,11.10
2023-01-29T22:47:06.416Z,10.70
2023-01-29T22:49:36.268Z,10.70
2023-01-29T22:52:12.870Z,9.82
2023-01-29T22:54:43.502Z,9.57
2023-01-29T22:57:13.603Z,9.02
2023-01-29T22:59:42.462Z,8.40
2023-01-29T23:02:11.446Z,8.68
2023-01-29T23:04:40.161Z,9.60
2023-01-29T23:07:10.563Z,7.85
2023-01-29T23:09:39.025Z,7.97
2023-01-29T23:12:08.014Z,9.30
2023-01-29T23:14:36.477Z,9.02
2023-01-29T23:17:04.915Z,10.13
2023-01-29T23:19:33.378Z,9.85
2023-01-29T23:22:04.401Z,9.27
2023-01-29T23:24:34.292Z,11.00
2023-01-29T23:27:16.920Z,10.63
2023-01-29T23:29:46.866Z,9.98
2023-01-29T23:32:17.602Z,8.20
2023-01-29T23:34:46.164Z,10.25
2023-01-29T23:37:15.615Z,8.27
2023-01-29T23:39:46.770Z,8.93
2023-01-29T23:42:16.426Z,10.13
2023-01-29T23:44:44.907Z,9.45
2023-01-29T23:47:13.579Z,9.55
2023-01-29T23:49:43.544Z,9.10
2023-01-29T23:52:11.931Z,7.97
2023-01-29T23:54:41.149Z,9.20
2023-01-29T23:57:10.976Z,9.00
2023-01-29T23:59:39.729Z,11.77
